Date,TemperatureHighF,TemperatureAvgF,TemperatureLowF,DewpointHighF,DewpointAvgF,DewpointLowF,HumidityHigh,HumidityAvg,HumidityLow,PressureMaxIn,PressureMinIn,WindSpeedMaxMPH,WindSpeedAvgMPH,GustSpeedMaxMPH,PrecipitationSumIn
2013-1-1,42.0,38.2,34.4,39.8,31.0,18.8,93,77,46,30.03,29.81,6,2,7,0.14
2013-1-2,33.0,31.8,29.8,30.7,27.5,24.1,92,84,74,30.07,29.88,5,1,8,0.01
2013-1-3,34.1,31.2,29.3,22.8,21.8,20.8,74,68,59,30.16,30.13,7,4,11,0.00
2013-1-4,34.8,28.1,23.4,23.8,20.7,17.8,80,74,61,30.24,30.14,10,4,15,0.00
2013-1-5,43.5,34.2,25.6,28.4,22.8,19.6,80,64,44,30.34,30.13,5,1,11,0.01
2013-1-6,42.4,36.4,29.8,32.8,29.6,26.4,89,76,65,30.13,29.97,7,2,20,0.01
2013-1-7,44.8,35.0,26.6,29.6,25.4,21.6,81,69,50,30.34,30.09,6,1,8,0.00
2013-1-8,50.0,38.4,28.7,32.2,28.2,24.9,88,68,46,30.35,30.26,3,1,5,0.00
2013-1-9,53.2,45.8,35.2,48.4,41.7,32.8,94,86,63,30.34,30.27,6,1,9,0.00
2013-1-10,56.3,49.3,42.9,37.9,33.1,30.4,73,54,40,30.41,30.30,2,0,4,0.00
2013-1-11,47.2,42.9,38.8,46.9,39.5,33.5,99,89,64,30.29,30.03,1,0,2,0.05
2013-1-12,70.1,56.6,43.7,61.6,53.9,43.2,100,91,71,30.07,29.94,3,0,4,0.01
2013-1-13,69.1,59.5,54.1,57.4,55.5,53.3,98,87,64,29.94,29.84,4,1,8,0.00
2013-1-14,60.0,50.3,40.5,55.8,48.9,39.7,98,95,86,30.10,29.88,7,1,10,0.71
2013-1-15,41.0,39.3,35.3,40.7,38.9,35.0,99,99,98,30.13,29.97,1,0,2,0.94
2013-1-16,49.3,41.8,34.6,49.3,41.0,34.1,100,97,90,29.97,29.84,9,2,12,0.27
2013-1-17,41.5,35.8,31.4,40.3,34.2,30.6,97,94,89,30.00,29.89,5,0,5,0.46
2013-1-18,36.9,31.1,24.1,25.8,23.9,22.0,92,75,58,30.43,30.38,2,0,5,0.27
2013-1-19,44.5,33.5,24.2,32.4,25.9,21.4,94,75,51,30.38,30.04,3,1,4,0.08
2013-1-20,49.0,40.0,32.5,32.4,26.9,20.6,77,61,39,30.03,29.91,8,3,15,0.00
2013-1-21,45.0,34.1,23.1,27.4,18.2,8.9,73,53,38,29.97,29.77,10,4,16,0.01
2013-1-22,22.5,16.5,11.0,7.6,0.9,-3.1,60,50,39,30.20,29.88,9,4,14,0.00
2013-1-23,28.4,19.3,10.9,20.2,7.3,-0.5,74,60,38,30.28,29.97,6,2,11,0.00
2013-1-24,33.5,21.0,12.6,24.7,9.7,3.6,77,62,46,30.43,29.93,11,4,18,0.00
2013-1-25,30.8,17.3,12.2,29.6,12.3,3.8,96,81,60,30.40,30.02,4,1,5,0.00
2013-1-26,30.9,27.1,22.0,29.5,22.3,17.6,95,82,75,30.34,30.02,8,4,14,0.03
2013-1-27,34.4,26.1,17.4,25.7,20.9,14.6,91,81,66,30.49,30.34,2,0,5,0.09
2013-1-28,61.1,42.6,29.7,48.8,38.0,25.7,97,85,63,30.37,30.08,5,1,9,0.13
2013-1-29,66.1,55.1,46.9,53.3,49.0,45.0,95,81,61,30.08,29.86,3,1,6,0.00
2013-1-30,62.6,58.6,53.2,59.4,56.5,51.8,98,93,89,29.85,29.28,9,4,11,1.31
2013-1-31,32.9,29.2,27.8,21.9,19.8,18.0,74,68,61,29.82,29.67,10,5,20,0.07
2013-2-1,32.9,19.5,12.5,27.8,10.7,4.4,92,69,53,30.28,29.70,10,5,15,0.00
2013-2-2,29.9,20.8,9.9,25.4,15.4,4.3,95,80,57,30.28,29.96,4,1,6,0.00
2013-2-3,33.8,27.7,24.2,28.0,23.4,18.9,95,84,76,29.96,29.77,10,4,26,0.05
2013-2-4,37.3,26.9,19.7,26.5,19.1,13.9,81,73,62,30.05,29.87,12,4,17,0.02
2013-2-5,42.5,38.5,35.5,35.5,31.9,25.9,88,77,64,29.87,29.80,5,3,10,0.01
2013-2-6,49.4,40.9,35.5,34.7,29.1,24.5,88,64,43,30.17,29.85,8,2,12,0.01
2013-2-7,36.3,33.2,30.5,32.8,29.3,24.6,95,86,63,30.23,29.99,1,0,2,0.00
2013-2-8,43.9,33.6,30.1,40.6,30.4,24.1,98,88,69,30.03,29.77,9,3,14,0.30
2013-2-9,44.9,33.1,23.8,24.2,18.3,13.7,79,56,35,30.27,30.02,12,3,15,0.00
2013-2-10,48.8,36.9,30.2,32.3,20.8,12.5,92,53,42,30.35,30.08,4,1,8,0.05
2013-2-11,56.8,46.6,34.4,52.9,40.4,24.4,99,81,44,30.08,29.79,8,2,13,0.07
2013-2-12,53.5,42.7,34.5,29.3,25.2,23.3,69,51,34,29.95,29.79,8,4,15,0.00
2013-2-13,42.3,37.5,32.4,39.0,33.4,26.1,97,86,55,29.82,29.49,9,2,11,0.24
2013-2-14,41.6,32.9,28.7,29.9,26.6,22.8,90,78,63,29.94,29.74,7,2,9,0.00
2013-2-15,52.4,38.3,30.3,38.1,30.6,27.0,91,75,49,29.97,29.81,8,2,14,0.01
2013-2-16,31.9,27.6,20.9,27.9,20.0,13.4,85,73,57,29.90,29.77,5,2,9,0.00
2013-2-17,23.7,19.0,13.0,15.9,7.7,1.7,82,61,51,30.17,29.84,10,5,16,0.00
2013-2-18,50.6,31.9,16.4,30.0,17.3,6.1,69,56,40,30.31,30.06,5,1,8,0.00
2013-2-19,47.7,37.5,31.4,39.4,28.0,15.9,96,70,42,30.06,29.68,9,4,16,0.04
2013-2-20,38.1,28.6,22.8,17.5,13.8,12.0,64,54,39,30.08,29.85,10,6,17,0.00
2013-2-21,45.2,31.7,19.6,21.7,16.3,11.6,72,54,36,30.18,30.05,7,2,12,0.00
2013-2-22,36.0,30.1,27.1,30.0,27.2,19.0,96,90,50,30.22,30.03,3,0,7,0.04
2013-2-23,50.9,38.3,29.7,44.3,36.0,28.7,98,92,77,30.06,29.72,3,0,5,0.15
2013-2-24,49.1,41.1,33.9,41.3,29.0,22.5,91,64,40,29.95,29.73,9,4,16,0.00
2013-2-25,41.7,32.1,26.0,28.0,23.2,20.7,82,70,56,30.07,29.95,3,0,4,0.00
2013-2-26,37.0,32.9,28.8,36.2,29.3,20.6,98,87,69,30.06,29.53,3,1,5,0.24
2013-2-27,42.0,37.4,34.4,36.2,33.2,31.2,98,85,70,29.67,29.52,6,3,10,0.01
2013-2-28,33.7,30.7,29.6,31.1,26.4,24.7,90,84,75,29.76,29.59,7,4,11,0.01
2013-3-1,35.0,31.4,29.4,27.3,25.5,23.1,89,79,69,29.83,29.73,5,2,10,0.00
2013-3-2,29.3,27.0,23.4,22.7,20.0,15.7,81,75,66,29.86,29.77,5,2,8,0.01
2013-3-3,26.6,23.2,21.3,18.1,16.1,13.6,79,74,67,29.92,29.83,8,3,18,0.00
2013-3-4,42.8,30.2,19.7,19.3,15.3,11.9,78,56,34,30.05,29.92,7,3,11,0.00
2013-3-5,46.8,36.7,31.7,33.7,28.9,15.8,96,75,46,30.00,29.51,2,0,5,0.22
2013-3-6,33.4,29.8,25.2,31.6,26.2,22.1,97,87,77,30.03,29.51,12,5,18,0.15
2013-3-7,34.1,30.6,28.7,27.4,26.0,24.4,90,83,71,30.19,30.02,7,3,9,0.01
2013-3-8,43.8,35.1,30.0,30.0,25.5,22.5,81,68,54,30.26,30.14,7,3,14,0.02
2013-3-9,59.9,42.8,27.8,34.5,28.6,22.7,84,60,33,30.28,30.15,3,1,6,0.00
2013-3-10,64.0,49.8,39.9,39.7,32.5,26.3,61,52,39,30.19,30.03,5,1,11,0.00
2013-3-11,53.1,48.7,43.0,49.6,39.9,29.6,95,72,57,30.06,29.73,6,1,13,0.26
2013-3-12,51.0,44.1,35.9,50.2,39.2,29.5,98,83,62,29.87,29.60,8,4,11,0.59
2013-3-13,36.4,32.4,24.9,30.6,25.2,16.5,92,75,56,30.07,29.85,9,4,15,0.01
2013-3-14,41.3,31.9,21.4,20.8,17.3,14.4,80,56,39,30.19,30.05,9,4,16,0.00
2013-3-15,59.1,42.8,29.1,38.7,27.7,16.1,66,56,44,30.10,29.78,6,2,10,0.00
2013-3-16,72.3,55.3,40.5,52.4,45.1,34.6,90,70,46,29.77,29.49,10,3,17,0.07
2013-3-17,54.1,43.9,32.9,49.6,41.5,32.1,97,91,82,30.02,29.71,4,0,8,0.19
2013-3-18,32.9,31.0,29.2,32.1,30.2,28.5,98,97,97,30.05,29.80,1,0,5,0.18
2013-3-19,53.4,40.9,31.5,39.8,25.3,6.8,99,62,20,29.94,29.74,11,5,17,0.01
2013-3-20,48.6,37.9,29.0,27.3,15.0,7.4,84,40,26,29.95,29.70,8,3,14,0.00
2013-3-21,29.8,23.9,19.6,25.6,15.4,10.7,84,70,52,29.92,29.66,8,4,13,0.00
2013-3-22,44.8,34.4,17.7,20.5,15.9,9.2,69,48,35,30.00,29.91,6,3,7,0.00
2013-3-23,51.1,39.2,30.0,30.3,21.7,15.6,62,49,39,29.95,29.81,4,1,7,0.00
2013-3-24,39.3,33.3,27.8,31.4,26.7,22.4,95,78,53,29.83,29.44,1,0,1,0.09
2013-3-25,37.6,30.0,26.5,29.7,25.8,23.5,96,85,61,29.70,29.43,9,3,13,0.25
2013-3-26,38.9,32.0,29.2,28.8,26.2,24.0,88,79,64,30.04,29.69,10,4,17,0.13
2013-3-27,37.9,31.5,27.6,27.0,24.7,22.2,85,76,62,30.15,30.04,7,4,12,0.04
2013-3-28,46.1,36.2,30.3,29.5,25.2,21.5,85,65,49,30.19,30.11,7,3,8,0.01
2013-3-29,54.0,41.3,30.6,30.3,26.4,23.3,77,57,38,30.22,30.08,5,1,8,0.00
2013-3-30,59.0,45.4,30.2,35.8,30.3,25.9,87,58,36,30.15,29.96,6,1,8,0.00
2013-3-31,54.3,48.3,43.9,50.7,42.5,29.5,98,82,48,29.96,29.67,5,1,7,0.39
2013-4-1,52.9,45.3,36.6,44.5,38.9,27.4,92,78,62,29.89,29.72,7,3,13,0.02
2013-4-2,48.2,38.4,30.7,27.6,20.5,14.8,71,50,30,30.08,29.90,7,3,12,0.00
2013-4-3,51.7,39.1,27.9,23.8,16.8,13.0,58,41,27,30.23,30.08,5,2,10,0.00
2013-4-4,38.2,33.0,29.9,30.8,21.4,12.1,96,65,39,30.24,29.92,3,0,5,0.00
2013-4-5,57.7,43.9,31.7,41.0,33.6,29.3,99,71,42,29.96,29.86,4,1,11,0.70
2013-4-6,63.5,49.8,37.3,39.9,32.8,28.5,76,53,36,30.12,29.95,4,1,6,0.00
2013-4-7,68.5,53.6,39.5,47.2,39.0,29.1,76,59,43,30.07,29.91,7,2,10,0.00
2013-4-8,75.9,61.5,47.4,53.6,48.0,42.2,83,63,41,30.00,29.40,7,2,10,0.00
2013-4-9,80.8,67.8,54.4,57.4,52.8,48.6,82,60,41,30.01,24.64,7,2,11,0.00
2013-4-10,85.0,75.4,63.8,59.9,56.2,51.7,72,53,32,29.88,28.86,7,3,13,0.00
2013-4-11,79.8,69.1,59.0,60.5,56.7,54.1,85,66,45,29.76,29.54,7,2,12,0.01
2013-4-12,68.5,61.0,51.5,61.9,52.7,37.2,99,77,40,29.68,29.44,9,3,18,1.04
2013-4-13,68.1,55.5,45.8,41.9,36.3,32.9,72,50,32,29.88,29.68,8,4,15,0.00
2013-4-14,73.6,60.4,47.7,45.1,39.1,33.2,66,46,32,29.96,29.85,6,2,10,0.01
2013-4-15,60.5,52.1,48.1,53.3,50.0,44.7,99,93,56,30.11,29.90,4,0,5,0.40
2013-4-16,76.9,62.4,52.8,61.6,56.5,52.0,99,83,56,30.17,30.01,4,1,6,0.00
2013-4-17,72.5,64.3,58.0,62.0,58.4,56.3,97,82,65,30.07,29.97,4,1,6,0.15
2013-4-18,73.9,65.5,60.1,61.3,57.8,54.4,93,77,55,29.98,29.79,7,2,11,0.00
2013-4-19,65.9,59.0,43.0,62.1,56.0,35.9,98,90,75,29.78,29.50,9,4,10,1.02
2013-4-20,55.9,45.1,35.6,35.8,30.2,26.1,78,58,39,30.21,29.73,9,4,14,0.01
2013-4-21,56.8,45.9,36.4,36.8,30.7,24.8,72,56,46,30.38,30.21,3,1,5,0.00
2013-4-22,59.9,45.7,33.4,36.3,31.2,26.1,84,60,30,30.36,30.17,4,1,9,0.00
2013-4-23,69.9,53.7,40.0,48.8,41.5,33.4,83,66,38,30.20,29.96,4,1,7,0.00
2013-4-24,73.3,58.4,47.3,58.2,50.5,43.0,93,77,46,29.98,29.75,9,3,12,0.20
2013-4-25,62.9,46.5,35.9,42.7,33.6,27.4,85,64,28,30.16,29.94,7,2,11,0.00
2013-4-26,65.1,58.7,52.0,38.9,37.7,35.3,58,46,35,30.24,30.18,3,0,4,0.00
2013-4-27,63.8,55.1,50.4,50.0,42.8,36.5,93,64,48,30.23,30.11,3,0,5,0.01
2013-4-28,52.4,50.3,48.6,51.6,49.1,47.6,98,96,92,30.11,29.91,4,1,5,0.37
2013-4-29,66.1,55.0,47.4,58.2,51.8,47.1,100,90,67,29.96,29.83,3,0,6,0.02
2013-4-30,71.3,59.9,54.0,58.5,54.9,52.1,100,84,63,29.99,27.57,3,0,9,0.00
2013-5-1,68.5,57.6,52.4,56.0,51.6,45.7,97,82,58,30.21,29.37,3,0,6,0.00
2013-5-2,66.9,56.3,49.2,54.5,47.2,38.5,89,72,62,30.22,28.74,2,0,5,0.00
2013-5-3,62.2,53.6,47.1,48.9,46.1,40.7,90,76,58,30.15,29.79,3,1,9,0.00
2013-5-4,63.4,50.8,42.3,48.4,43.0,38.6,89,75,52,30.07,29.13,4,1,7,0.00
2013-5-5,52.6,48.5,42.8,48.1,41.9,30.7,98,79,58,30.00,29.88,2,1,7,0.01
2013-5-6,53.7,51.1,48.4,53.6,50.7,47.7,100,99,97,29.90,29.75,2,1,5,0.47
2013-5-7,58.0,53.2,51.4,53.2,52.1,51.4,100,96,82,29.80,29.75,3,0,4,0.37
2013-5-8,57.0,52.5,48.3,54.1,51.3,48.2,100,96,88,29.91,29.84,1,0,4,0.21
2013-5-9,75.3,62.2,49.5,57.5,53.6,48.4,98,76,49,29.95,20.28,5,2,8,0.18
2013-5-10,78.4,62.9,53.5,61.3,56.6,51.7,98,82,52,29.91,20.89,7,1,16,0.04
2013-5-11,73.3,61.2,57.0,63.4,58.7,56.7,100,92,64,29.70,21.90,4,0,7,0.04
2013-5-12,57.5,51.5,45.4,38.6,35.2,31.9,75,54,42,29.93,28.85,6,3,12,0.03
2013-5-13,56.6,47.3,38.6,34.3,31.7,29.2,74,56,39,30.07,29.67,5,1,10,0.00
2013-5-14,71.9,50.3,38.2,47.6,36.6,32.3,82,63,38,30.12,28.75,3,1,7,0.01
2013-5-15,87.7,80.9,69.8,61.5,58.9,55.9,67,48,38,29.83,28.26,5,2,9,0.01
2013-5-16,69.6,67.9,66.5,58.2,57.2,55.5,71,69,67,29.12,27.65,1,0,3,0.01
2013-5-20,79.8,71.3,63.8,69.6,65.9,62.9,97,84,67,29.90,25.08,2,0,2,0.03
2013-5-21,85.9,70.6,56.5,68.9,63.9,56.2,100,82,53,29.90,25.06,4,1,9,0.07
2013-5-22,83.8,66.0,59.0,69.9,62.6,58.4,100,90,56,29.81,24.73,2,0,4,0.06
2013-5-23,78.7,64.8,58.9,65.7,61.1,57.6,100,89,61,29.77,25.89,5,0,9,0.05
2013-5-24,59.0,52.8,46.6,57.2,45.0,36.4,94,76,50,30.08,28.67,5,2,11,0.03
2013-5-25,67.2,52.6,41.6,41.0,35.2,28.4,74,54,33,30.18,24.33,5,2,9,0.01
2013-5-26,70.9,58.5,49.1,45.8,41.6,39.2,73,55,36,30.13,24.00,3,1,5,0.01
2013-5-27,75.3,67.8,57.9,60.0,55.2,44.5,86,65,54,29.75,20.14,1,0,4,0.01
2013-5-28,83.7,68.2,56.3,65.9,60.1,54.6,96,77,44,30.00,20.14,3,1,8,0.02
2013-5-29,85.9,71.0,60.3,66.7,61.8,58.4,97,75,45,30.00,25.95,2,0,6,0.02
2013-5-30,87.1,72.2,61.7,65.6,61.5,55.2,93,72,37,30.00,26.78,2,0,4,0.02
2013-5-31,84.6,71.8,59.5,68.2,62.7,57.2,94,74,51,29.94,21.64,3,1,8,3.96
2013-6-1,83.2,76.0,61.7,70.7,66.2,60.5,96,73,55,29.83,24.60,4,1,5,0.00
2013-6-2,73.4,68.6,64.1,67.8,65.5,62.9,96,90,80,29.78,22.69,3,0,5,0.05
2013-6-3,77.1,67.0,61.5,65.2,61.8,56.9,99,84,63,29.73,20.61,4,0,8,0.02
2013-6-4,70.1,60.8,55.8,62.6,57.3,54.1,96,89,77,29.92,20.61,0,0,0,0.00
2013-6-5,68.1,61.8,59.4,63.1,60.0,58.5,98,94,83,29.88,24.14,0,0,2,0.00
2013-6-6,65.6,62.2,59.9,65.6,61.4,59.6,100,97,89,29.78,22.24,0,0,2,1.23
2013-6-7,70.1,64.5,61.4,67.8,63.3,57.6,100,96,86,29.61,25.43,2,0,5,0.12
2013-6-8,79.5,66.2,57.3,67.0,60.8,56.4,99,84,59,29.96,28.68,2,0,4,0.23
2013-6-9,83.9,70.9,63.0,70.6,65.0,61.8,98,83,49,29.98,28.47,4,0,12,0.15
2013-6-10,76.7,67.5,64.0,71.3,65.7,61.3,100,94,77,29.75,25.26,3,0,8,1.14
2013-6-11,77.7,67.7,61.0,67.4,63.0,60.4,99,86,66,29.81,24.97,4,1,10,0.45
2013-6-12,67.2,64.4,62.9,63.5,62.0,60.9,95,92,88,29.72,27.57,1,0,5,0.00
2013-6-13,82.7,69.9,61.5,73.2,64.4,55.4,96,83,71,29.54,24.87,7,2,11,0.28
2013-6-14,74.6,67.1,60.7,59.3,56.7,54.6,82,70,56,29.84,25.15,3,1,7,0.00
2013-6-15,81.1,66.5,54.4,61.9,57.1,52.8,97,74,47,29.97,21.82,2,0,6,0.00
2013-6-16,79.3,68.4,57.9,69.0,62.5,54.7,96,82,65,29.86,20.94,3,0,6,0.12
2013-6-17,85.0,71.2,62.9,71.5,66.1,62.6,100,86,59,29.78,21.81,1,0,5,0.10
2013-6-18,72.3,66.3,62.2,68.9,64.7,61.4,99,95,84,29.70,24.06,1,0,2,0.68
2013-6-19,62.0,60.0,58.4,61.4,59.5,57.8,99,98,97,29.61,25.56,1,0,2,0.00
2013-6-20,76.2,69.7,64.1,67.7,65.1,62.4,96,86,75,30.06,23.82,0,0,0,0.00
2013-6-21,83.6,69.5,59.5,70.2,63.9,58.9,99,84,60,30.11,24.92,1,0,4,0.00
2013-6-22,84.4,69.1,56.8,68.5,61.9,55.7,96,80,53,29.60,25.30,1,0,4,0.00
2013-6-23,86.0,72.7,64.1,70.8,66.2,63.2,99,82,52,29.98,25.56,2,0,7,0.17
2013-6-24,85.2,72.5,64.6,71.9,67.9,64.4,100,87,59,29.95,22.58,1,0,2,0.01
2013-6-25,84.5,73.2,63.7,73.2,68.2,63.1,100,85,67,29.87,23.27,2,0,5,0.00
2013-6-26,84.9,70.4,63.6,73.8,67.7,63.0,100,92,68,31.29,23.32,4,0,6,0.55
2013-6-27,77.2,68.9,64.6,71.4,67.0,63.1,100,94,79,29.60,22.64,4,1,7,0.11
2013-6-28,84.6,74.5,67.1,71.0,67.1,62.9,97,79,55,29.43,20.05,4,1,7,0.00
2013-6-29,83.9,71.0,61.5,69.5,64.0,60.1,98,80,54,29.51,18.53,3,0,5,0.00
2013-6-30,84.6,70.3,62.9,70.0,65.5,62.0,99,86,55,29.67,22.17,3,0,4,0.86
2013-7-1,78.0,69.8,64.3,70.8,66.9,64.3,100,91,73,29.72,21.31,1,0,5,0.04
2013-7-2,73.4,68.2,66.1,70.8,67.2,65.7,100,97,88,29.75,19.11,1,0,1,0.72
2013-7-3,72.9,68.3,66.1,72.0,68.0,65.8,100,99,94,29.27,17.66,1,0,2,1.27
2013-7-4,81.8,71.4,66.3,73.6,69.1,66.3,100,93,69,30.06,23.16,2,0,4,0.19
2013-7-5,83.1,72.2,66.1,73.7,69.3,65.8,100,91,69,30.03,20.28,3,0,6,0.09
2013-7-6,84.2,72.4,65.5,71.1,68.1,65.1,100,87,61,30.00,22.41,3,0,5,0.02
2013-7-7,81.9,69.8,65.8,73.5,67.8,64.3,100,94,67,29.94,20.85,5,0,7,0.28
2013-7-8,83.5,71.1,63.9,70.4,66.6,63.9,100,87,61,29.97,19.24,2,0,2,0.00
2013-7-9,86.7,74.7,66.1,73.2,68.3,64.3,96,82,58,29.53,19.74,1,0,3,0.00
2013-7-10,82.4,72.2,68.1,74.8,69.8,66.6,99,93,74,25.25,23.29,1,0,2,1.02
2013-7-11,79.5,71.4,65.7,72.1,68.4,65.6,100,91,75,29.74,23.70,1,0,4,0.00
2013-7-12,75.1,68.1,63.5,67.3,64.9,61.9,98,90,76,29.86,20.15,1,0,2,0.00
2013-7-13,75.4,67.7,62.8,71.1,65.8,61.6,99,94,85,29.82,20.86,1,0,1,0.00
2013-7-14,83.6,72.5,66.5,74.0,69.2,66.2,100,90,69,31.28,21.61,1,0,5,0.09
2013-7-15,88.7,75.0,67.2,74.5,69.6,66.3,100,85,57,29.73,21.61,1,0,2,0.11
2013-7-16,92.0,75.5,65.3,74.8,68.9,64.7,100,82,52,29.52,21.06,4,0,4,0.11
2013-7-17,90.2,75.1,68.9,77.6,71.7,68.6,99,90,63,30.43,25.41,3,0,4,0.08
2013-7-18,88.9,76.4,68.0,77.9,72.6,68.0,100,89,65,30.02,16.01,0,0,2,0.00
2013-7-19,87.1,74.7,67.8,78.1,71.3,65.7,100,90,66,29.91,28.25,5,0,6,0.07
2013-7-20,88.3,74.1,66.7,75.3,70.3,66.4,100,89,60,29.79,22.84,2,0,4,0.02
2013-7-21,81.6,72.6,66.1,75.7,70.3,65.7,100,93,76,29.77,22.84,2,0,2,0.09
2013-7-22,83.5,71.9,66.4,74.2,69.5,66.2,100,93,70,29.70,22.02,3,0,5,0.50
2013-7-23,84.5,73.6,67.1,73.4,68.5,66.3,99,85,62,29.60,21.07,2,1,7,0.03
2013-7-24,82.0,72.2,66.0,69.6,66.0,61.7,97,82,64,29.66,23.51,3,0,4,0.00
2013-7-25,82.3,69.8,62.7,66.3,61.6,57.0,92,77,49,29.71,17.86,1,0,4,0.00
2013-7-26,83.1,68.6,56.0,68.9,62.1,54.4,97,81,58,29.76,22.82,2,0,7,0.00
2013-7-27,70.5,66.5,64.2,68.6,65.5,63.3,99,97,92,31.38,22.31,0,0,1,1.09
2013-7-28,81.3,69.8,63.7,70.6,65.4,61.7,100,87,63,29.76,23.35,1,0,6,0.01
2013-7-29,78.6,65.6,56.0,61.4,57.5,54.8,98,77,50,30.53,20.09,3,0,3,0.00
2013-7-30,79.9,65.9,55.4,65.6,59.3,53.1,96,80,59,29.93,25.09,1,0,2,0.00
2013-7-31,68.4,64.6,62.1,64.7,62.9,60.9,99,95,84,32.15,23.10,0,0,0,0.26
2013-8-1,79.1,69.4,62.8,70.0,65.5,62.1,100,88,71,32.28,20.47,2,0,5,0.17
2013-8-2,80.5,69.8,62.3,65.2,62.6,60.2,98,79,56,31.32,22.26,2,0,5,0.00
2013-8-3,81.1,69.6,60.7,71.0,64.5,58.9,96,84,66,25.16,21.93,2,0,5,0.04
2013-8-4,79.9,69.1,63.6,66.0,62.3,57.4,98,80,56,32.20,19.90,2,0,5,0.00
2013-8-5,78.7,68.3,60.1,67.7,61.3,55.9,90,79,63,32.20,18.74,1,0,2,0.00
2013-8-6,81.0,71.5,65.2,70.6,66.5,63.3,96,85,67,28.69,16.11,1,0,3,0.00
2013-8-7,77.2,70.0,67.1,71.5,67.6,65.6,96,92,81,24.19,16.11,2,0,4,0.00
2013-8-8,75.9,69.7,68.0,71.6,67.8,66.8,96,94,85,24.19,24.19,1,0,2,0.00
2013-8-9,84.3,78.5,72.6,76.2,73.2,70.1,96,84,74,28.99,18.56,2,1,6,0.12
2013-8-10,84.7,74.2,67.7,74.8,70.1,66.7,98,88,68,29.25,23.54,3,0,4,0.00
2013-8-11,84.3,72.1,66.9,75.5,69.7,66.6,100,93,71,32.41,23.06,2,0,4,0.31
2013-8-12,85.0,72.7,66.3,72.0,68.3,65.7,99,88,61,32.41,20.47,2,0,5,0.14
2013-8-13,79.9,70.2,65.6,72.5,67.2,62.3,100,91,74,25.40,16.86,2,0,6,0.13
2013-8-14,75.9,63.8,57.0,62.3,54.9,49.5,90,74,51,25.40,23.39,1,0,4,0.00
2013-8-15,76.5,54.0,52.3,60.7,36.8,-99.9,87,69,55,23.39,23.39,1,-105,3,0.00
2013-8-16,74.8,64.0,52.9,64.2,54.9,-99.9,98,77,63,30.04,29.97,1,-21,2,0.00
2013-8-17,68.4,60.1,54.6,61.0,57.4,53.5,99,91,75,30.10,30.03,1,0,3,0.12
2013-8-18,71.3,63.3,58.7,67.9,62.1,58.7,100,96,85,30.10,30.02,0,0,1,0.11
2013-8-19,75.0,67.2,62.8,70.0,65.6,62.2,100,95,81,30.07,29.93,1,0,1,0.21
2013-8-20,82.0,70.4,63.5,72.4,67.3,63.3,100,91,68,30.05,29.97,1,0,2,0.00
2013-8-21,80.0,71.0,65.4,73.0,68.3,64.2,100,91,73,30.07,29.95,2,0,2,0.05
2013-8-22,82.1,70.6,60.5,71.8,66.4,60.2,100,88,68,30.01,29.87,2,0,7,0.01
2013-8-23,81.4,70.3,62.3,71.8,66.1,60.8,99,87,62,29.98,29.81,2,0,5,0.00
2013-8-24,79.5,66.2,56.7,63.4,59.3,56.0,99,81,50,30.18,29.98,1,0,3,0.00
2013-8-25,78.6,65.5,56.6,63.4,58.1,54.8,97,79,49,30.26,30.15,1,0,3,0.00
2013-8-26,81.9,67.2,54.3,66.2,60.5,53.5,99,81,54,30.19,29.97,1,0,3,0.00
2013-8-27,80.9,71.7,62.5,71.8,67.3,61.0,99,87,72,29.98,29.83,2,0,5,0.00
2013-8-28,83.1,73.5,66.5,74.1,69.2,65.6,99,87,68,29.86,29.72,3,1,10,0.00
2013-8-29,85.9,75.7,70.3,74.7,70.7,67.5,94,85,66,29.86,29.71,3,0,6,0.01
2013-8-30,82.9,72.0,65.0,72.0,68.0,64.4,100,88,68,29.89,29.77,2,0,4,0.00
2013-8-31,84.0,70.7,65.3,74.2,67.7,62.4,99,91,68,29.79,29.68,3,0,7,0.17
2013-9-1,78.7,69.0,62.1,72.9,67.4,61.8,100,95,79,29.74,29.67,1,0,3,0.29
2013-9-2,83.6,72.7,65.2,72.3,68.2,64.7,100,87,66,29.75,29.65,2,0,6,0.01
2013-9-3,82.9,71.9,63.8,70.1,65.4,59.2,99,82,54,29.84,29.66,3,0,7,0.00
2013-9-4,81.3,66.4,55.1,64.6,59.3,54.3,99,80,44,29.97,29.84,0,0,5,0.00
2013-9-5,82.5,67.9,56.4,63.5,59.5,55.3,97,77,50,30.00,29.94,2,0,4,0.00
2013-9-6,77.8,66.2,59.6,64.5,60.6,56.0,98,83,60,30.05,29.96,2,0,2,0.00
2013-9-7,83.2,67.6,54.9,65.4,58.2,53.6,98,75,44,30.00,29.84,2,0,4,0.00
2013-9-8,85.1,71.1,61.3,70.1,63.2,56.0,89,77,58,29.86,29.78,2,0,4,0.00
2013-9-9,78.7,69.2,64.3,71.0,66.1,62.6,98,90,75,30.03,29.87,0,0,2,0.00
2013-9-10,86.0,71.7,63.9,74.1,68.6,63.6,100,91,63,30.09,30.00,1,0,3,0.15
2013-9-11,85.7,73.3,64.4,75.5,69.1,63.8,100,88,62,30.06,29.92,2,0,4,0.00
2013-9-12,84.4,73.0,65.4,72.9,67.6,63.1,99,84,65,29.92,29.68,3,0,8,0.00
2013-9-13,73.5,65.3,54.2,63.4,55.4,47.5,92,72,47,29.82,29.62,4,1,8,0.00
2013-9-14,71.8,57.0,45.5,53.6,48.4,43.6,95,75,50,30.02,29.81,2,0,4,0.00
2013-9-15,74.9,60.3,48.5,60.9,54.2,46.9,96,81,58,30.11,29.99,2,0,7,0.00
2013-9-16,71.9,61.2,54.1,62.8,57.4,51.2,99,88,68,30.11,29.97,2,0,4,0.00
2013-9-17,69.4,56.9,49.6,55.9,51.7,47.9,95,84,60,30.23,30.10,1,0,3,0.00
2013-9-18,67.7,56.7,46.3,58.1,52.5,44.9,96,86,70,30.18,30.05,2,0,2,0.00
2013-9-19,70.6,62.7,57.2,65.8,60.3,55.6,97,92,82,30.06,29.94,1,0,1,0.01
2013-9-20,75.2,65.7,62.5,70.8,64.3,62.1,100,96,84,29.94,29.80,0,0,1,0.51
2013-9-21,66.6,62.1,57.0,66.0,61.6,56.7,100,98,96,29.81,29.56,2,0,3,0.84
2013-9-22,71.3,58.7,50.7,59.7,54.1,49.9,100,86,60,29.82,29.63,1,0,2,0.00
2013-9-23,72.9,57.5,48.9,60.2,53.0,47.4,98,86,61,29.94,29.82,2,0,4,0.00
2013-9-24,75.5,60.8,52.9,63.6,57.0,52.2,99,89,57,29.96,29.79,1,0,5,0.00
2013-9-25,66.1,59.4,53.9,61.3,57.8,53.6,100,95,78,29.83,29.74,0,0,1,0.02
2013-9-26,74.8,62.7,56.1,61.4,57.7,54.3,100,86,59,29.92,29.78,1,0,2,0.01
2013-9-27,73.3,60.0,51.3,58.7,54.0,49.9,97,82,58,30.08,29.92,1,0,4,0.00
2013-9-28,64.1,57.4,50.0,56.0,53.6,48.6,95,88,73,30.13,30.06,0,0,1,0.00
2013-9-29,69.6,56.3,47.4,59.0,52.2,46.9,99,87,66,30.08,29.93,1,0,4,0.00
2013-9-30,68.4,59.2,50.4,61.5,55.5,49.1,98,88,70,29.97,29.88,1,0,4,0.00
2013-10-1,77.3,62.9,51.7,62.6,56.9,50.9,99,83,56,30.01,29.92,2,0,5,0.00
2013-10-2,79.7,64.5,52.2,64.1,57.9,50.8,98,81,54,30.02,29.93,2,0,5,0.00
2013-10-3,77.0,64.4,55.0,65.1,59.5,53.9,98,85,60,30.01,29.93,1,0,2,0.00
2013-10-4,81.5,67.8,55.5,68.1,62.0,54.7,100,83,59,30.02,29.93,2,0,4,0.00
2013-10-5,82.5,68.2,56.6,68.7,62.3,56.0,100,84,56,30.00,29.89,1,0,4,0.00
2013-10-6,80.3,68.3,60.7,66.5,62.2,60.1,99,83,56,29.91,29.74,3,0,5,0.00
2013-10-7,64.5,59.4,48.2,62.9,54.9,44.5,99,86,69,29.95,29.62,4,1,9,1.94
2013-10-8,66.1,53.0,45.0,51.5,45.8,41.5,92,78,57,30.14,29.93,1,0,4,0.00
2013-10-9,54.2,47.4,45.0,45.0,44.1,42.5,92,88,70,30.16,30.10,1,0,3,0.00
2013-10-15,63.7,56.9,52.7,56.2,52.7,50.5,99,86,74,30.08,29.96,0,0,0,0.01
2013-10-16,65.2,57.1,50.3,58.0,53.7,49.3,98,89,75,29.97,29.82,1,0,2,0.00
2013-10-17,63.6,58.5,51.6,62.2,57.1,48.8,100,95,90,29.84,29.65,5,0,9,0.03
2013-10-18,62.7,52.1,43.9,48.5,44.3,40.2,90,76,54,29.92,29.80,2,0,6,0.00
2013-10-19,60.6,53.0,47.7,55.8,49.0,42.6,96,87,63,29.88,29.69,4,0,6,0.00
2013-10-20,60.3,47.2,36.3,42.0,36.7,32.6,89,69,40,30.00,29.82,3,0,5,0.00
2013-10-21,65.1,50.4,38.9,48.3,42.2,35.9,90,75,45,30.05,29.87,2,0,4,0.00
2013-10-22,60.4,52.0,45.5,49.8,46.9,44.2,95,83,67,29.87,29.68,3,1,9,0.00
2013-10-23,50.3,44.1,35.7,46.6,39.6,30.9,94,85,65,29.88,29.59,5,1,14,0.02
2013-10-24,43.6,36.9,32.4,33.2,30.6,28.4,86,78,65,30.10,29.87,4,1,7,0.00
2013-10-25,42.1,35.2,31.2,30.7,28.0,25.2,92,76,58,30.28,30.10,4,1,7,0.01
2013-10-26,53.3,38.5,23.5,35.7,26.8,21.8,95,67,35,30.27,29.96,4,1,7,0.00
2013-10-27,61.7,50.6,42.3,42.1,38.2,34.9,80,63,45,30.00,29.91,5,1,9,0.00
2013-10-28,54.0,48.6,41.9,50.7,45.0,37.7,96,88,74,30.16,30.00,0,0,2,0.00
2013-10-29,52.4,50.6,48.4,51.4,49.7,47.6,99,96,95,30.24,30.15,0,0,1,0.00
2013-10-30,66.7,60.4,52.8,60.5,57.3,52.3,99,90,77,30.11,30.02,4,0,7,0.25
2013-10-31,63.9,59.6,56.6,58.2,56.1,54.5,96,88,75,30.04,29.64,5,1,12,0.18
2013-11-1,70.8,63.2,55.9,59.7,54.2,46.3,96,74,48,29.62,28.42,7,3,11,0.20
2013-11-2,59.0,52.2,45.4,46.1,40.0,33.6,79,64,45,29.83,29.55,6,2,12,0.00
2013-11-3,51.9,44.6,40.8,36.9,34.8,31.8,79,69,51,30.23,29.83,4,2,8,0.00
2013-11-4,48.9,41.3,33.4,34.2,30.2,24.1,75,65,54,30.46,30.36,1,0,4,0.00
2013-11-5,52.9,41.7,31.5,44.6,34.7,25.1,95,76,63,30.50,30.36,1,0,3,0.00
2013-11-6,63.8,52.7,44.0,52.4,48.0,42.8,99,85,65,30.36,29.98,3,0,4,0.01
2013-11-7,51.9,45.5,36.4,51.1,39.3,26.8,97,79,65,30.01,29.84,9,2,13,0.04
2013-11-8,46.2,38.4,33.0,29.7,26.0,23.5,74,62,46,30.24,30.01,6,2,11,0.00
2013-11-9,54.1,39.7,26.8,32.2,26.6,21.9,83,61,40,30.26,30.06,4,1,9,0.00
2013-11-10,58.3,48.1,38.0,37.5,31.2,25.6,70,53,33,30.15,29.98,8,4,12,0.00
2013-11-11,59.1,45.2,31.2,33.2,26.6,24.5,78,51,28,30.23,30.00,3,0,8,0.00
2013-11-12,49.1,40.2,29.2,36.7,27.3,19.9,75,61,43,30.19,29.91,5,2,12,0.00
2013-11-14,55.5,50.1,33.2,24.5,21.6,17.4,65,33,28,30.37,30.23,4,2,8,0.00
2013-11-15,57.3,51.2,46.0,45.7,39.3,27.6,95,69,35,30.16,30.08,2,0,2,0.22
2013-11-16,48.9,45.6,43.1,48.9,45.0,42.3,100,98,95,30.17,30.10,0,0,1,0.03
2013-11-18,59.8,51.3,42.1,40.4,32.4,27.2,59,49,38,29.87,29.74,8,5,18,0.16
2013-11-19,45.3,38.1,32.8,29.1,26.7,25.1,74,64,51,30.22,29.86,9,2,9,0.00
2013-11-20,44.4,35.0,28.4,28.6,25.4,23.1,81,68,51,30.40,30.21,3,0,6,0.00
2013-11-21,48.4,39.9,33.8,42.5,35.3,26.7,91,84,75,30.44,30.31,1,0,2,0.00
2013-11-22,62.9,54.0,45.1,55.6,50.8,41.7,96,89,76,30.30,29.96,4,1,7,0.02
2013-11-23,51.2,40.6,25.8,48.7,32.4,13.4,92,73,53,30.12,29.97,7,4,13,0.00
2013-11-24,27.2,20.9,16.2,16.4,7.6,4.1,76,57,40,30.47,30.12,7,3,11,0.00
2013-11-25,34.8,24.3,14.2,15.8,10.8,5.8,74,57,43,30.47,30.30,2,0,4,0.00
2013-11-26,40.1,33.7,26.2,39.8,32.2,13.3,99,94,49,30.30,29.57,6,0,7,1.69
2013-11-27,40.5,27.9,19.7,40.2,23.7,11.6,100,84,70,30.06,29.53,9,4,18,0.03
2013-11-28,35.0,26.0,18.1,21.8,16.8,11.9,82,69,53,30.40,30.07,5,2,13,0.01
2013-11-29,43.1,33.2,25.2,27.8,21.5,15.9,74,62,51,30.52,30.38,3,1,6,0.00
2013-11-30,29.2,28.4,27.4,22.6,21.7,21.0,77,76,75,30.35,30.28,0,0,0,0.00
2013-12-1,51.5,36.4,21.6,33.9,26.2,18.5,91,68,46,30.28,29.49,3,0,4,0.00
2013-12-2,48.3,41.0,34.4,37.5,32.9,27.9,83,73,64,29.94,28.82,1,0,2,0.00
2013-12-3,57.0,46.3,38.2,45.0,39.6,34.1,90,78,62,29.85,29.63,2,0,5,0.00
2013-12-4,60.7,51.0,46.7,52.4,47.9,43.9,96,90,73,29.94,29.77,2,0,4,0.00
2013-12-5,63.0,56.9,51.9,58.4,54.9,50.5,98,93,83,29.96,29.37,2,0,3,0.03
2013-12-6,64.3,56.5,39.6,61.7,55.7,38.2,100,97,82,29.92,29.07,11,2,11,0.97
2013-12-7,39.9,34.5,29.9,38.2,31.9,26.8,96,90,81,30.37,29.90,6,1,8,0.04
2013-12-8,32.2,28.7,25.0,30.4,27.4,23.8,98,95,89,30.35,29.89,1,0,1,0.00
2013-12-9,49.0,36.8,29.7,46.5,35.6,29.0,100,95,87,30.17,29.96,6,1,7,0.47
2013-12-10,37.4,32.9,25.3,35.3,30.3,19.5,97,90,78,30.20,29.85,8,2,10,0.26
2013-12-11,43.4,31.3,22.1,25.1,20.1,16.3,82,64,43,30.34,30.06,11,3,15,0.00
2013-12-12,31.7,26.0,21.8,20.6,13.6,6.8,73,60,40,30.31,29.54,7,4,14,0.00
2013-12-13,45.0,32.9,23.0,22.6,16.4,10.5,59,51,40,30.28,29.78,7,2,11,0.00
2013-12-14,35.5,32.4,31.5,31.9,30.0,20.3,98,91,56,30.23,29.67,1,0,1,0.24
2013-12-15,38.0,32.4,29.3,37.7,29.3,24.9,99,88,80,29.96,29.64,10,4,15,0.05
2013-12-16,44.2,34.6,28.2,33.2,28.4,24.0,87,78,64,30.08,29.15,5,2,10,0.00
2013-12-17,49.0,38.5,30.3,37.3,31.8,25.1,92,77,60,30.01,29.80,8,3,11,0.06
2013-12-18,39.1,31.2,25.1,24.9,20.3,17.4,78,65,46,30.19,29.82,8,4,18,0.00
2013-12-19,61.4,42.4,27.5,33.4,25.0,17.1,69,52,31,30.20,29.83,5,0,6,0.00
2013-12-20,59.0,48.6,40.1,46.2,32.3,25.7,68,54,41,30.07,29.72,5,1,10,0.00
2013-12-21,62.8,54.3,46.1,59.4,49.0,37.3,94,82,65,29.97,29.31,8,2,10,0.00
2013-12-22,63.0,56.8,53.1,61.3,56.0,52.8,100,97,85,29.90,29.08,9,1,9,0.82
2013-12-23,56.3,44.6,28.6,56.3,42.5,24.4,100,92,82,30.09,29.71,5,1,12,0.94
2013-12-24,32.5,25.2,15.7,23.9,18.1,8.1,86,75,62,30.38,29.50,7,2,14,0.00
2013-12-25,35.3,21.9,11.7,16.6,11.5,7.8,92,66,37,30.45,29.59,3,0,5,0.00
2013-12-26,40.8,30.6,20.7,27.3,18.3,10.2,79,60,49,30.31,29.48,8,2,14,0.00
2013-12-27,47.1,33.8,24.1,26.0,20.6,17.2,75,59,40,30.36,29.16,3,0,5,0.00
2013-12-28,51.0,37.0,23.3,36.9,25.3,18.5,93,64,41,30.31,29.04,3,0,4,0.11
2013-12-29,43.6,40.3,37.2,42.9,39.1,35.5,99,95,85,30.07,28.28,8,2,12,1.29
2013-12-30,39.5,37.7,33.7,36.0,33.9,29.7,88,86,83,29.98,29.79,8,4,10,0.00
2013-12-31,37.5,32.9,27.0,23.6,20.6,18.7,77,61,50,30.27,29.08,10,4,11,0.00
2014-1-1,48.0,33.7,23.8,27.8,23.3,18.7,87,68,36,30.28,28.92,4,1,7,0.00
2014-1-2,36.4,32.2,22.1,33.7,27.9,16.9,93,84,74,30.01,28.54,11,1,20,0.08